^^
Grace C. Lehan Memorial Weather Station Historical Data
Daily Summary for July 24, 2022 Units:  Both    English   Metric
Daily Weekly Monthly Yearly
  High: Low: Average:
Temperature: 68.5 °F /  20.3 °C 43.7 °F /  6.5 °C 56.6 °F /  13.7 °C
Dew Point: 49.7 °F /  9.8 °C 38.7 °F /  3.7 °C 44.3 °F /  6.8 °C
Humidity: 87% 46.1% 65%
Wind Speed: 4.6mph /  7.4km/h - 1mph /  1.6km/h
Wind Gust: 18mph /  29km/h - -
Wind- - WNW
Pressure: 29.95 in /  1014.1 hPa 29.83 in /  1010 hPa -
Precipitation: 0.00 in /  0 mm    
 
 
Tabular Data for July 24, 2022
Time Temperature Dew Point Pressure Wind Wind Speed Wind Gust Humidity Rainfall Rate (Hourly) solar
00:09 49.1 °F /  9.5 °C 38.7 °F /  3.7 °C 29.93in /  1013.4hPa WNW 0.6mph /  1km/h 9mph /  14.5km/h 67.2% 0.00in /  0mm 0 W/m2
00:14 49 °F /  9.4 °C 38.9 °F /  3.8 °C 29.93in /  1013.4hPa WNW 2.2mph /  3.5km/h 10mph /  16.1km/h 67.9% 0.00in /  0mm 0 W/m2
00:19 49 °F /  9.4 °C 38.7 °F /  3.7 °C 29.93in /  1013.4hPa NW 0.5mph /  0.8km/h 11mph /  17.7km/h 67.4% 0.00in /  0mm 0 W/m2
00:24 49 °F /  9.4 °C 38.8 °F /  3.8 °C 29.94in /  1013.8hPa NW 0.4mph /  0.6km/h 11mph /  17.7km/h 67.8% 0.00in /  0mm 0 W/m2
00:29 49 °F /  9.4 °C 38.9 °F /  3.8 °C 29.94in /  1013.8hPa NW 0.1mph /  0.2km/h 11mph /  17.7km/h 68% 0.00in /  0mm 0 W/m2
00:34 48.9 °F /  9.4 °C 38.8 °F /  3.8 °C 29.94in /  1013.8hPa WNW 1.5mph /  2.4km/h 11mph /  17.7km/h 68% 0.00in /  0mm 0 W/m2
00:39 48.8 °F /  9.3 °C 38.8 °F /  3.8 °C 29.94in /  1013.8hPa WNW 0.8mph /  1.3km/h 9mph /  14.5km/h 68.3% 0.00in /  0mm 0 W/m2
00:44 48.8 °F /  9.3 °C 38.8 °F /  3.8 °C 29.94in /  1013.8hPa NW 0.2mph /  0.3km/h 9mph /  14.5km/h 68.3% 0.00in /  0mm 0 W/m2
00:49 48.7 °F /  9.3 °C 39 °F /  3.9 °C 29.94in /  1013.8hPa WNW 0.2mph /  0.3km/h 9mph /  14.5km/h 69% 0.00in /  0mm 0 W/m2
00:54 48.6 °F /  9.2 °C 38.9 °F /  3.8 °C 29.94in /  1013.8hPa WNW 1.1mph /  1.8km/h 9mph /  14.5km/h 69% 0.00in /  0mm 0 W/m2
00:59 48.5 °F /  9.2 °C 38.9 °F /  3.8 °C 29.94in /  1013.8hPa WNW 0.5mph /  0.8km/h 9mph /  14.5km/h 69.1% 0.00in /  0mm 0 W/m2
01:04 48.5 °F /  9.2 °C 39.2 °F /  4 °C 29.95in /  1014.1hPa WNW 0.3mph /  0.5km/h 9mph /  14.5km/h 70% 0.00in /  0mm 0 W/m2
01:09 48.3 °F /  9.1 °C 39 °F /  3.9 °C 29.95in /  1014.1hPa WNW 2.7mph /  4.3km/h 10mph /  16.1km/h 70% 0.00in /  0mm 0 W/m2
01:14 48.3 °F /  9.1 °C 39 °F /  3.9 °C 29.94in /  1013.8hPa WNW 2mph /  3.2km/h 12mph /  19.3km/h 70% 0.00in /  0mm 0 W/m2
01:19 48.3 °F /  9.1 °C 39.1 °F /  3.9 °C 29.94in /  1013.8hPa WNW 1.2mph /  1.9km/h 12mph /  19.3km/h 70.3% 0.00in /  0mm 0 W/m2
01:24 48.3 °F /  9.1 °C 39.3 °F /  4.1 °C 29.94in /  1013.8hPa West 1.1mph /  1.8km/h 12mph /  19.3km/h 71% 0.00in /  0mm 0 W/m2
01:29 48.2 °F /  9 °C 39.2 °F /  4 °C 29.93in /  1013.4hPa WNW 1.3mph /  2.1km/h 12mph /  19.3km/h 71% 0.00in /  0mm 0 W/m2
01:34 48.1 °F /  8.9 °C 39.3 °F /  4.1 °C 29.93in /  1013.4hPa West 0.8mph /  1.3km/h 12mph /  19.3km/h 71.5% 0.00in /  0mm 0 W/m2
01:39 48 °F /  8.9 °C 39.1 °F /  3.9 °C 29.93in /  1013.4hPa WNW 0.6mph /  1km/h 6mph /  9.7km/h 71.2% 0.00in /  0mm 0 W/m2
01:44 48 °F /  8.9 °C 39.1 °F /  3.9 °C 29.94in /  1013.8hPa NW 1.8mph /  2.9km/h 9mph /  14.5km/h 71.3% 0.00in /  0mm 0 W/m2
01:49 48 °F /  8.9 °C 39.2 °F /  4 °C 29.93in /  1013.4hPa WNW 3.6mph /  5.8km/h 13mph /  20.9km/h 71.2% 0.00in /  0mm 0 W/m2
01:54 48.2 °F /  9 °C 39.2 °F /  4 °C 29.93in /  1013.4hPa NW 2.9mph /  4.7km/h 16mph /  25.7km/h 71% 0.00in /  0mm 0 W/m2
01:59 48.3 °F /  9.1 °C 39.4 °F /  4.1 °C 29.93in /  1013.4hPa NW 0.7mph /  1.1km/h 16mph /  25.7km/h 71% 0.00in /  0mm 0 W/m2
02:04 48.4 °F /  9.1 °C 39.4 °F /  4.1 °C 29.93in /  1013.4hPa NW 1.6mph /  2.6km/h 16mph /  25.7km/h 71% 0.00in /  0mm 0 W/m2
02:09 48.4 °F /  9.1 °C 39.4 °F /  4.1 °C 29.93in /  1013.4hPa NW 0.2mph /  0.3km/h 9mph /  14.5km/h 71% 0.00in /  0mm 0 W/m2
02:14 48.3 °F /  9.1 °C 39.4 °F /  4.1 °C 29.93in /  1013.4hPa Calm   9mph /  14.5km/h 71% 0.00in /  0mm 0 W/m2
02:19 48.2 °F /  9 °C 39.3 °F /  4.1 °C 29.93in /  1013.4hPa Calm   9mph /  14.5km/h 71% 0.00in /  0mm 0 W/m2
02:24 48.1 °F /  8.9 °C 39.2 °F /  4 °C 29.92in /  1013.1hPa Calm   9mph /  14.5km/h 71% 0.00in /  0mm 0 W/m2
02:29 48 °F /  8.9 °C 39.2 °F /  4 °C 29.92in /  1013.1hPa Calm   9mph /  14.5km/h 71.5% 0.00in /  0mm 0 W/m2
02:34 47.9 °F /  8.8 °C 39.3 °F /  4.1 °C 29.91in /  1012.8hPa Calm   9mph /  14.5km/h 72% 0.00in /  0mm 0 W/m2
02:39 47.8 °F /  8.8 °C 39.2 °F /  4 °C 29.91in /  1012.8hPa Calm     72% 0.00in /  0mm 0 W/m2
02:44 47.6 °F /  8.7 °C 39.1 °F /  3.9 °C 29.91in /  1012.8hPa Calm     72.2% 0.00in /  0mm 0 W/m2
02:49 47.4 °F /  8.6 °C 39.2 °F /  4 °C 29.91in /  1012.8hPa Calm     73.1% 0.00in /  0mm 0 W/m2
02:54 47.2 °F /  8.4 °C 39.2 °F /  4 °C 29.91in /  1012.8hPa Calm     73.4% 0.00in /  0mm 0 W/m2
02:59 47 °F /  8.3 °C 39.1 °F /  3.9 °C 29.91in /  1012.8hPa Calm     73.7% 0.00in /  0mm 0 W/m2
03:04 46.8 °F /  8.2 °C 39.1 °F /  3.9 °C 29.91in /  1012.8hPa Calm     74.4% 0.00in /  0mm 0 W/m2
03:09 46.6 °F /  8.1 °C 39.1 °F /  3.9 °C 29.92in /  1013.1hPa Calm     75% 0.00in /  0mm 0 W/m2
03:14 46.4 °F /  8 °C 38.9 °F /  3.8 °C 29.92in /  1013.1hPa Calm     75% 0.00in /  0mm 0 W/m2
03:19 46.1 °F /  7.8 °C 39 °F /  3.9 °C 29.92in /  1013.1hPa Calm     76% 0.00in /  0mm 0 W/m2
03:24 45.9 °F /  7.7 °C 38.8 °F /  3.8 °C 29.92in /  1013.1hPa Calm     76.2% 0.00in /  0mm 0 W/m2
03:29 45.7 °F /  7.6 °C 38.9 °F /  3.8 °C 29.92in /  1013.1hPa Calm     77% 0.00in /  0mm 0 W/m2
03:34 45.5 °F /  7.5 °C 39 °F /  3.9 °C 29.92in /  1013.1hPa Calm     78% 0.00in /  0mm 0 W/m2
03:39 45.3 °F /  7.4 °C 39 °F /  3.9 °C 29.92in /  1013.1hPa Calm     78.7% 0.00in /  0mm 0 W/m2
03:44 45.1 °F /  7.3 °C 39.1 °F /  3.9 °C 29.93in /  1013.4hPa Calm     79.4% 0.00in /  0mm 0 W/m2
03:49 44.9 °F /  7.2 °C 39.1 °F /  3.9 °C 29.93in /  1013.4hPa Calm     80% 0.00in /  0mm 0 W/m2
03:54 44.7 °F /  7.1 °C 39 °F /  3.9 °C 29.93in /  1013.4hPa Calm     80.4% 0.00in /  0mm 0 W/m2
03:59 44.5 °F /  6.9 °C 39 °F /  3.9 °C 29.93in /  1013.4hPa Calm     81% 0.00in /  0mm 0 W/m2
04:00 44.4 °F /  6.9 °C 38.9 °F /  3.8 °C 29.93in /  1013.4hPa Calm     81% 0.00in /  0mm 0 W/m2
04:09 44.1 °F /  6.7 °C 39.2 °F /  4 °C 29.93in /  1013.4hPa Calm     82.7% 0.00in /  0mm 0 W/m2
04:14 44 °F /  6.7 °C 39.2 °F /  4 °C 29.93in /  1013.4hPa Calm     83% 0.00in /  0mm 0 W/m2
04:19 43.9 °F /  6.6 °C 39.2 °F /  4 °C 29.93in /  1013.4hPa Calm     83.4% 0.00in /  0mm 0 W/m2
04:24 43.8 °F /  6.6 °C 39.2 °F /  4 °C 29.93in /  1013.4hPa Calm     84% 0.00in /  0mm 0 W/m2
04:29 43.7 °F /  6.5 °C 39.2 °F /  4 °C 29.93in /  1013.4hPa Calm     84% 0.00in /  0mm 0 W/m2
04:34 43.7 °F /  6.5 °C 39.2 °F /  4 °C 29.92in /  1013.1hPa WNW 0.3mph /  0.5km/h 6mph /  9.7km/h 84% 0.00in /  0mm 0 W/m2
04:39 43.9 °F /  6.6 °C 39.3 °F /  4.1 °C 29.93in /  1013.4hPa West 0.1mph /  0.2km/h 6mph /  9.7km/h 84% 0.00in /  0mm 0 W/m2
04:44 44 °F /  6.7 °C 39.5 °F /  4.2 °C 29.93in /  1013.4hPa WNW 0.4mph /  0.6km/h 7mph /  11.3km/h 84% 0.00in /  0mm 0 W/m2
04:49 44.2 °F /  6.8 °C 39.7 °F /  4.3 °C 29.93in /  1013.4hPa Calm   7mph /  11.3km/h 83.9% 0.00in /  0mm 0 W/m2
04:54 44.5 °F /  6.9 °C 39.7 °F /  4.3 °C 29.92in /  1013.1hPa NW 0.6mph /  1km/h 7mph /  11.3km/h 83% 0.00in /  0mm 0 W/m2
04:59 44.9 °F /  7.2 °C 39.8 °F /  4.3 °C 29.92in /  1013.1hPa NW 0.1mph /  0.2km/h 7mph /  11.3km/h 82.4% 0.00in /  0mm 0 W/m2
05:04 45.3 °F /  7.4 °C 40 °F /  4.4 °C 29.92in /  1013.1hPa NW 1.1mph /  1.8km/h 8mph /  12.9km/h 81.4% 0.00in /  0mm 0 W/m2
05:09 45.7 °F /  7.6 °C 40.1 °F /  4.5 °C 29.92in /  1013.1hPa Calm   8mph /  12.9km/h 80.4% 0.00in /  0mm 0 W/m2
05:14 46 °F /  7.8 °C 40 °F /  4.4 °C 29.92in /  1013.1hPa NW 0.4mph /  0.6km/h 8mph /  12.9km/h 79.5% 0.00in /  0mm 0 W/m2
05:19 46.3 °F /  7.9 °C 40.1 °F /  4.5 °C 29.92in /  1013.1hPa NW 1.3mph /  2.1km/h 8mph /  12.9km/h 79% 0.00in /  0mm 0 W/m2
05:24 46.5 °F /  8.1 °C 40 °F /  4.4 °C 29.93in /  1013.4hPa NNW 1mph /  1.6km/h 8mph /  12.9km/h 78% 0.00in /  0mm 0 W/m2
05:29 46.7 °F /  8.2 °C 40.2 °F /  4.6 °C 29.93in /  1013.4hPa NW 1.6mph /  2.6km/h 11mph /  17.7km/h 78% 0.00in /  0mm 0 W/m2
05:34 46.9 °F /  8.3 °C 40.2 °F /  4.6 °C 29.93in /  1013.4hPa NW 1.4mph /  2.3km/h 11mph /  17.7km/h 77.4% 0.00in /  0mm 0 W/m2
05:39 47.1 °F /  8.4 °C 40.2 °F /  4.6 °C 29.92in /  1013.1hPa NW 0.1mph /  0.2km/h 10mph /  16.1km/h 76.9% 0.00in /  0mm 0 W/m2
05:44 47.2 °F /  8.4 °C 40 °F /  4.4 °C 29.93in /  1013.4hPa NW 0.1mph /  0.2km/h 10mph /  16.1km/h 76% 0.00in /  0mm 0 W/m2
05:49 47.2 °F /  8.4 °C 40 °F /  4.4 °C 29.93in /  1013.4hPa Calm   10mph /  16.1km/h 76% 0.00in /  0mm 0 W/m2
05:54 47.1 °F /  8.4 °C 40 °F /  4.4 °C 29.93in /  1013.4hPa Calm   10mph /  16.1km/h 76% 0.00in /  0mm 0 W/m2
05:59 47 °F /  8.3 °C 40.1 °F /  4.5 °C 29.94in /  1013.8hPa NNW 0.4mph /  0.6km/h 10mph /  16.1km/h 76.8% 0.00in /  0mm 0 W/m2
06:04 46.8 °F /  8.2 °C 40 °F /  4.4 °C 29.94in /  1013.8hPa SW 0.1mph /  0.2km/h 10mph /  16.1km/h 77% 0.00in /  0mm 0 W/m2
06:09 46.8 °F /  8.2 °C 40 °F /  4.4 °C 29.93in /  1013.4hPa NNW 0.1mph /  0.2km/h 9mph /  14.5km/h 77.1% 0.00in /  0mm 0 W/m2
06:14 46.7 °F /  8.2 °C 40 °F /  4.4 °C 29.94in /  1013.8hPa NW 0.6mph /  1km/h 9mph /  14.5km/h 77.1% 0.00in /  0mm 0 W/m2
06:19 46.8 °F /  8.2 °C 40 °F /  4.4 °C 29.94in /  1013.8hPa NNW 0.9mph /  1.4km/h 9mph /  14.5km/h 77% 0.00in /  0mm 0 W/m2
06:23 46.9 °F /  8.3 °C 40.1 °F /  4.5 °C 29.94in /  1013.8hPa NNW 0.1mph /  0.2km/h 9mph /  14.5km/h 77% 0.00in /  0mm 0 W/m2
06:29 47 °F /  8.3 °C 40.2 °F /  4.6 °C 29.94in /  1013.8hPa Calm   9mph /  14.5km/h 77% 0.00in /  0mm 0 W/m2
06:34 47.1 °F /  8.4 °C 40.3 °F /  4.6 °C 29.94in /  1013.8hPa Calm   9mph /  14.5km/h 77% 0.00in /  0mm 0 W/m2
06:39 47.2 °F /  8.4 °C 40.3 °F /  4.6 °C 29.93in /  1013.4hPa NW 0.2mph /  0.3km/h 4mph /  6.4km/h 77% 0.00in /  0mm 0 W/m2
06:44 47.3 °F /  8.5 °C 40.4 °F /  4.7 °C 29.94in /  1013.8hPa NW 0.6mph /  1km/h 4mph /  6.4km/h 77% 0.00in /  0mm 0 W/m2
06:49 47.3 °F /  8.5 °C 40.5 °F /  4.7 °C 29.94in /  1013.8hPa NW 0.2mph /  0.3km/h 4mph /  6.4km/h 76.9% 0.00in /  0mm 5 W/m2
06:54 47.4 °F /  8.6 °C 40.3 °F /  4.6 °C 29.93in /  1013.4hPa NNW 0.4mph /  0.6km/h 4mph /  6.4km/h 76.2% 0.00in /  0mm 7 W/m2
06:59 47.5 °F /  8.6 °C 40.3 °F /  4.6 °C 29.93in /  1013.4hPa Calm   4mph /  6.4km/h 76% 0.00in /  0mm 9 W/m2
07:04 47.6 °F /  8.7 °C 40.4 °F /  4.7 °C 29.93in /  1013.4hPa Calm   4mph /  6.4km/h 76% 0.00in /  0mm 11 W/m2
07:09 47.6 °F /  8.7 °C 40.5 °F /  4.7 °C 29.93in /  1013.4hPa Calm   2mph /  3.2km/h 76% 0.00in /  0mm 12 W/m2
07:14 47.7 °F /  8.7 °C 40.5 °F /  4.7 °C 29.93in /  1013.4hPa Calm   2mph /  3.2km/h 76% 0.00in /  0mm 12 W/m2
07:19 47.7 °F /  8.7 °C 40.5 °F /  4.7 °C 29.93in /  1013.4hPa NNW 0.5mph /  0.8km/h 2mph /  3.2km/h 76% 0.00in /  0mm 14 W/m2
07:24 47.8 °F /  8.8 °C 40.6 °F /  4.8 °C 29.93in /  1013.4hPa Calm   2mph /  3.2km/h 76% 0.00in /  0mm 16 W/m2
07:29 47.9 °F /  8.8 °C 40.7 °F /  4.8 °C 29.93in /  1013.4hPa Calm   2mph /  3.2km/h 76% 0.00in /  0mm 19 W/m2
07:34 48.1 °F /  8.9 °C 40.8 °F /  4.9 °C 29.93in /  1013.4hPa Calm   2mph /  3.2km/h 75.5% 0.00in /  0mm 19 W/m2
07:39 48.3 °F /  9.1 °C 40.9 °F /  4.9 °C 29.93in /  1013.4hPa NNW 0.3mph /  0.5km/h 5mph /  8km/h 75.4% 0.00in /  0mm 18 W/m2
07:44 48.5 °F /  9.2 °C 41 °F /  5 °C 29.93in /  1013.4hPa Calm   5mph /  8km/h 75.2% 0.00in /  0mm 19 W/m2
07:49 48.7 °F /  9.3 °C 41.1 °F /  5.1 °C 29.93in /  1013.4hPa NNW 0.2mph /  0.3km/h 5mph /  8km/h 75% 0.00in /  0mm 19 W/m2
07:54 48.9 °F /  9.4 °C 41.3 °F /  5.2 °C 29.93in /  1013.4hPa NNW 0.9mph /  1.4km/h 5mph /  8km/h 74.8% 0.00in /  0mm 21 W/m2
07:59 49.2 °F /  9.6 °C 41.3 °F /  5.2 °C 29.93in /  1013.4hPa WNW 0.4mph /  0.6km/h 7mph /  11.3km/h 74% 0.00in /  0mm 21 W/m2
08:00 49.4 °F /  9.7 °C 41.5 °F /  5.3 °C 29.93in /  1013.4hPa Calm   7mph /  11.3km/h 74% 0.00in /  0mm 21 W/m2
08:09 49.7 °F /  9.8 °C 41.7 °F /  5.4 °C 29.94in /  1013.8hPa WNW 0.3mph /  0.5km/h 3mph /  4.8km/h 73.8% 0.00in /  0mm 25 W/m2
08:14 49.9 °F /  9.9 °C 41.6 °F /  5.3 °C 29.94in /  1013.8hPa WNW 0.9mph /  1.4km/h 6mph /  9.7km/h 73% 0.00in /  0mm 25 W/m2
08:19 50.2 °F /  10.1 °C 41.8 °F /  5.4 °C 29.94in /  1013.8hPa WNW 2.8mph /  4.5km/h 13mph /  20.9km/h 72.9% 0.00in /  0mm 30 W/m2
08:24 50.4 °F /  10.2 °C 41.8 °F /  5.4 °C 29.94in /  1013.8hPa WNW 2.1mph /  3.4km/h 14mph /  22.5km/h 72% 0.00in /  0mm 32 W/m2
08:29 50.6 °F /  10.3 °C 41.9 °F /  5.5 °C 29.94in /  1013.8hPa West 2.5mph /  4km/h 14mph /  22.5km/h 72% 0.00in /  0mm 37 W/m2
08:34 50.8 °F /  10.4 °C 42.1 °F /  5.6 °C 29.94in /  1013.8hPa West 0.4mph /  0.6km/h 14mph /  22.5km/h 71.9% 0.00in /  0mm 42 W/m2
08:39 51 °F /  10.6 °C 42.2 °F /  5.7 °C 29.94in /  1013.8hPa WNW 1.8mph /  2.9km/h 15mph /  24.1km/h 71.8% 0.00in /  0mm 49 W/m2
08:44 51.2 °F /  10.7 °C 42.2 °F /  5.7 °C 29.94in /  1013.8hPa WNW 1mph /  1.6km/h 15mph /  24.1km/h 71.1% 0.00in /  0mm 56 W/m2
08:49 51.5 °F /  10.8 °C 42.4 °F /  5.8 °C 29.94in /  1013.8hPa WNW 0.2mph /  0.3km/h 15mph /  24.1km/h 71% 0.00in /  0mm 63 W/m2
08:54 51.8 °F /  11 °C 42.9 °F /  6.1 °C 29.94in /  1013.8hPa WNW 0.3mph /  0.5km/h 15mph /  24.1km/h 71.5% 0.00in /  0mm 72 W/m2
08:59 52.1 °F /  11.2 °C 43.1 °F /  6.2 °C 29.94in /  1013.8hPa NW 0.9mph /  1.4km/h 15mph /  24.1km/h 71.3% 0.00in /  0mm 171 W/m2
09:04 52.5 °F /  11.4 °C 43.4 °F /  6.3 °C 29.94in /  1013.8hPa West 0.8mph /  1.3km/h 15mph /  24.1km/h 71.2% 0.00in /  0mm 457 W/m2
09:09 53.4 °F /  11.9 °C 43.5 °F /  6.4 °C 29.94in /  1013.8hPa WNW 2.7mph /  4.3km/h 12mph /  19.3km/h 69% 0.00in /  0mm 471 W/m2
09:14 54.6 °F /  12.6 °C 43.9 °F /  6.6 °C 29.94in /  1013.8hPa WNW 1.1mph /  1.8km/h 12mph /  19.3km/h 67.2% 0.00in /  0mm 487 W/m2
09:19 55.9 °F /  13.3 °C 44.6 °F /  7 °C 29.94in /  1013.8hPa WNW 1.1mph /  1.8km/h 12mph /  19.3km/h 65.7% 0.00in /  0mm 501 W/m2
09:24 57 °F /  13.9 °C 45 °F /  7.2 °C 29.94in /  1013.8hPa WNW 0.9mph /  1.4km/h 12mph /  19.3km/h 64.3% 0.00in /  0mm 517 W/m2
09:29 58.1 °F /  14.5 °C 45.4 °F /  7.4 °C 29.94in /  1013.8hPa WSW 1mph /  1.6km/h 12mph /  19.3km/h 62.6% 0.00in /  0mm 536 W/m2
09:34 58.8 °F /  14.9 °C 44.8 °F /  7.1 °C 29.94in /  1013.8hPa WNW 3.8mph /  6.1km/h 12mph /  19.3km/h 59.6% 0.00in /  0mm 550 W/m2
09:39 59.2 °F /  15.1 °C 45.3 °F /  7.4 °C 29.94in /  1013.8hPa NW 0.7mph /  1.1km/h 12mph /  19.3km/h 59.8% 0.00in /  0mm 554 W/m2
09:44 60 °F /  15.6 °C 45.9 °F /  7.7 °C 29.94in /  1013.8hPa NW 2.1mph /  3.4km/h 13mph /  20.9km/h 59.6% 0.00in /  0mm 566 W/m2
09:49 60.7 °F /  15.9 °C 45.5 °F /  7.5 °C 29.94in /  1013.8hPa NW 0.6mph /  1km/h 13mph /  20.9km/h 57.3% 0.00in /  0mm 578 W/m2
09:54 61.3 °F /  16.3 °C 46.1 °F /  7.8 °C 29.94in /  1013.8hPa NW 0.4mph /  0.6km/h 13mph /  20.9km/h 57.3% 0.00in /  0mm 591 W/m2
09:59 61.8 °F /  16.6 °C 45.1 °F /  7.3 °C 29.94in /  1013.8hPa West 3.2mph /  5.1km/h 13mph /  20.9km/h 54.2% 0.00in /  0mm 603 W/m2
10:04 62 °F /  16.7 °C 45.4 °F /  7.4 °C 29.94in /  1013.8hPa West 0.9mph /  1.4km/h 13mph /  20.9km/h 54.5% 0.00in /  0mm 613 W/m2
10:09 62.4 °F /  16.9 °C 46 °F /  7.8 °C 29.94in /  1013.8hPa WNW 2mph /  3.2km/h 10mph /  16.1km/h 54.8% 0.00in /  0mm 624 W/m2
10:14 62.7 °F /  17.1 °C 45.3 °F /  7.4 °C 29.93in /  1013.4hPa NW 3.9mph /  6.3km/h 13mph /  20.9km/h 52.9% 0.00in /  0mm 633 W/m2
10:19 62.8 °F /  17.1 °C 45.9 °F /  7.7 °C 29.93in /  1013.4hPa WNW 1.2mph /  1.9km/h 13mph /  20.9km/h 54% 0.00in /  0mm 649 W/m2
10:24 63.2 °F /  17.3 °C 46.6 °F /  8.1 °C 29.93in /  1013.4hPa West 0.3mph /  0.5km/h 13mph /  20.9km/h 54.5% 0.00in /  0mm 659 W/m2
10:29 64 °F /  17.8 °C 46.7 °F /  8.2 °C 29.93in /  1013.4hPa WNW 2.5mph /  4km/h 13mph /  20.9km/h 53.4% 0.00in /  0mm 670 W/m2
10:34 64.5 °F /  18.1 °C 46.5 °F /  8.1 °C 29.93in /  1013.4hPa NW 1.8mph /  2.9km/h 13mph /  20.9km/h 51.9% 0.00in /  0mm 679 W/m2
10:39 64.8 °F /  18.2 °C 45.9 °F /  7.7 °C 29.93in /  1013.4hPa WNW 2.2mph /  3.5km/h 15mph /  24.1km/h 50.3% 0.00in /  0mm 689 W/m2
10:44 64.7 °F /  18.2 °C 45.6 °F /  7.6 °C 29.93in /  1013.4hPa NW 2.5mph /  4km/h 15mph /  24.1km/h 49.9% 0.00in /  0mm 700 W/m2
10:49 64.7 °F /  18.2 °C 45.5 °F /  7.5 °C 29.93in /  1013.4hPa NW 2.1mph /  3.4km/h 15mph /  24.1km/h 49.8% 0.00in /  0mm 710 W/m2
10:54 64.8 °F /  18.2 °C 45.6 °F /  7.6 °C 29.93in /  1013.4hPa WNW 2.6mph /  4.2km/h 15mph /  24.1km/h 49.8% 0.00in /  0mm 712 W/m2
10:59 64.9 °F /  18.3 °C 45.8 °F /  7.7 °C 29.93in /  1013.4hPa WNW 0.8mph /  1.3km/h 15mph /  24.1km/h 50% 0.00in /  0mm 726 W/m2
11:04 65.2 °F /  18.4 °C 46 °F /  7.8 °C 29.93in /  1013.4hPa NW 2.9mph /  4.7km/h 15mph /  24.1km/h 49.9% 0.00in /  0mm 707 W/m2
11:09 65.2 °F /  18.4 °C 45.1 °F /  7.3 °C 29.93in /  1013.4hPa WNW 3.3mph /  5.3km/h 15mph /  24.1km/h 48.2% 0.00in /  0mm 722 W/m2
11:14 64.9 °F /  18.3 °C 44.9 °F /  7.2 °C 29.93in /  1013.4hPa West 4mph /  6.4km/h 15mph /  24.1km/h 48.2% 0.00in /  0mm 744 W/m2
11:19 64.7 °F /  18.2 °C 45.2 °F /  7.3 °C 29.92in /  1013.1hPa West 1.7mph /  2.7km/h 15mph /  24.1km/h 49.1% 0.00in /  0mm 751 W/m2
11:24 64.8 °F /  18.2 °C 44.8 °F /  7.1 °C 29.93in /  1013.4hPa West 3.2mph /  5.1km/h 18mph /  29km/h 48.3% 0.00in /  0mm 754 W/m2
11:29 64.8 °F /  18.2 °C 44.5 °F /  6.9 °C 29.93in /  1013.4hPa WNW 2.3mph /  3.7km/h 18mph /  29km/h 47.8% 0.00in /  0mm 687 W/m2
11:34 64.8 °F /  18.2 °C 44.7 °F /  7.1 °C 29.93in /  1013.4hPa WNW 2.6mph /  4.2km/h 18mph /  29km/h 48.1% 0.00in /  0mm 647 W/m2
11:39 64.9 °F /  18.3 °C 45.7 °F /  7.6 °C 29.92in /  1013.1hPa WNW 2.3mph /  3.7km/h 13mph /  20.9km/h 49.7% 0.00in /  0mm 605 W/m2
11:44 65.1 °F /  18.4 °C 45.4 °F /  7.4 °C 29.92in /  1013.1hPa WNW 2.2mph /  3.5km/h 13mph /  20.9km/h 48.8% 0.00in /  0mm 132 W/m2
11:49 65.1 °F /  18.4 °C 45.2 °F /  7.3 °C 29.92in /  1013.1hPa NW 2.3mph /  3.7km/h 13mph /  20.9km/h 48.5% 0.00in /  0mm 155 W/m2
11:54 64.9 °F /  18.3 °C 45.3 °F /  7.4 °C 29.91in /  1012.8hPa WNW 2mph /  3.2km/h 13mph /  20.9km/h 49% 0.00in /  0mm 148 W/m2
11:59 64.8 °F /  18.2 °C 45.4 °F /  7.4 °C 29.91in /  1012.8hPa WNW 3.4mph /  5.5km/h 13mph /  20.9km/h 49.2% 0.00in /  0mm 156 W/m2
12:00 64.7 °F /  18.2 °C 45.1 °F /  7.3 °C 29.91in /  1012.8hPa WNW 2mph /  3.2km/h 13mph /  20.9km/h 49% 0.00in /  0mm 142 W/m2
12:09 64.1 °F /  17.8 °C 44.2 °F /  6.8 °C 29.91in /  1012.8hPa WNW 2.7mph /  4.3km/h 9mph /  14.5km/h 48.3% 0.00in /  0mm 120 W/m2
12:14 64 °F /  17.8 °C 44.5 °F /  6.9 °C 29.91in /  1012.8hPa WNW 2.5mph /  4km/h 11mph /  17.7km/h 49% 0.00in /  0mm 251 W/m2
12:19 64 °F /  17.8 °C 45.1 °F /  7.3 °C 29.91in /  1012.8hPa NW 4.6mph /  7.4km/h 13mph /  20.9km/h 50.2% 0.00in /  0mm 459 W/m2
12:24 64.1 °F /  17.8 °C 44.6 °F /  7 °C 29.91in /  1012.8hPa West 1.4mph /  2.3km/h 13mph /  20.9km/h 49.1% 0.00in /  0mm 534 W/m2
12:29 64.3 °F /  17.9 °C 44.9 °F /  7.2 °C 29.91in /  1012.8hPa West 2mph /  3.2km/h 13mph /  20.9km/h 49.2% 0.00in /  0mm 446 W/m2
12:34 64.5 °F /  18.1 °C 45 °F /  7.2 °C 29.91in /  1012.8hPa WNW 2.8mph /  4.5km/h 13mph /  20.9km/h 49.2% 0.00in /  0mm 320 W/m2
12:39 64.5 °F /  18.1 °C 45 °F /  7.2 °C 29.91in /  1012.8hPa WNW 1.5mph /  2.4km/h 11mph /  17.7km/h 49.2% 0.00in /  0mm 142 W/m2
12:44 64.5 °F /  18.1 °C 46.2 °F /  7.9 °C 29.91in /  1012.8hPa West 1.6mph /  2.6km/h 11mph /  17.7km/h 51.4% 0.00in /  0mm 185 W/m2
12:49 64.6 °F /  18.1 °C 46.5 °F /  8.1 °C 29.90in /  1012.4hPa West 1.7mph /  2.7km/h 11mph /  17.7km/h 51.7% 0.00in /  0mm 125 W/m2
12:54 64.8 °F /  18.2 °C 47.4 °F /  8.6 °C 29.90in /  1012.4hPa West 1.4mph /  2.3km/h 11mph /  17.7km/h 53.4% 0.00in /  0mm 153 W/m2
12:59 65 °F /  18.3 °C 47.4 °F /  8.6 °C 29.90in /  1012.4hPa WNW 1.1mph /  1.8km/h 11mph /  17.7km/h 53% 0.00in /  0mm 295 W/m2
13:04 65.1 °F /  18.4 °C 47.3 °F /  8.5 °C 29.90in /  1012.4hPa WNW 1.6mph /  2.6km/h 11mph /  17.7km/h 52.4% 0.00in /  0mm 362 W/m2
13:09 65.4 °F /  18.6 °C 47.6 °F /  8.7 °C 29.89in /  1012.1hPa West 1.8mph /  2.9km/h 7mph /  11.3km/h 52.4% 0.00in /  0mm 204 W/m2
13:14 65.6 °F /  18.7 °C 46.1 °F /  7.8 °C 29.89in /  1012.1hPa WNW 3mph /  4.8km/h 11mph /  17.7km/h 49.3% 0.00in /  0mm 121 W/m2
13:19 65.8 °F /  18.8 °C 46.6 °F /  8.1 °C 29.89in /  1012.1hPa West 1.1mph /  1.8km/h 11mph /  17.7km/h 49.9% 0.00in /  0mm 158 W/m2
13:24 66 °F /  18.9 °C 47.2 °F /  8.4 °C 29.89in /  1012.1hPa WNW 2.3mph /  3.7km/h 11mph /  17.7km/h 50.7% 0.00in /  0mm 239 W/m2
13:29 66.1 °F /  18.9 °C 47 °F /  8.3 °C 29.89in /  1012.1hPa WNW 1.6mph /  2.6km/h 11mph /  17.7km/h 50.1% 0.00in /  0mm 54 W/m2
13:34 66.3 °F /  19.1 °C 47.3 °F /  8.5 °C 29.89in /  1012.1hPa WNW 2mph /  3.2km/h 11mph /  17.7km/h 50.4% 0.00in /  0mm 67 W/m2
13:39 66.5 °F /  19.2 °C 48.2 °F /  9 °C 29.88in /  1011.7hPa West 1.3mph /  2.1km/h 9mph /  14.5km/h 51.8% 0.00in /  0mm 90 W/m2
13:44 66.7 °F /  19.3 °C 48.1 °F /  8.9 °C 29.88in /  1011.7hPa WNW 1.9mph /  3.1km/h 10mph /  16.1km/h 51.2% 0.00in /  0mm 69 W/m2
13:49 66.8 °F /  19.3 °C 47.6 °F /  8.7 °C 29.88in /  1011.7hPa WNW 0.6mph /  1km/h 11mph /  17.7km/h 50% 0.00in /  0mm 54 W/m2
13:54 66.9 °F /  19.4 °C 47.8 °F /  8.8 °C 29.88in /  1011.7hPa WNW 1.9mph /  3.1km/h 11mph /  17.7km/h 50.2% 0.00in /  0mm 60 W/m2
13:59 66.9 °F /  19.4 °C 47 °F /  8.3 °C 29.88in /  1011.7hPa WNW 2.6mph /  4.2km/h 14mph /  22.5km/h 48.7% 0.00in /  0mm 72 W/m2
14:04 66.8 °F /  19.3 °C 47.1 °F /  8.4 °C 29.87in /  1011.4hPa West 2.8mph /  4.5km/h 14mph /  22.5km/h 49% 0.00in /  0mm 58 W/m2
14:09 66.8 °F /  19.3 °C 47 °F /  8.3 °C 29.87in /  1011.4hPa West 1.5mph /  2.4km/h 9mph /  14.5km/h 49% 0.00in /  0mm 65 W/m2
14:14 66.8 °F /  19.3 °C 47.4 °F /  8.6 °C 29.87in /  1011.4hPa WNW 2.8mph /  4.5km/h 10mph /  16.1km/h 49.6% 0.00in /  0mm 69 W/m2
14:19 67 °F /  19.4 °C 46.9 °F /  8.3 °C 29.86in /  1011.1hPa WNW 0.9mph /  1.4km/h 10mph /  16.1km/h 48.3% 0.00in /  0mm 63 W/m2
14:24 67.2 °F /  19.6 °C 47.2 °F /  8.4 °C 29.86in /  1011.1hPa NW 1.7mph /  2.7km/h 10mph /  16.1km/h 48.7% 0.00in /  0mm 58 W/m2
14:29 67.3 °F /  19.6 °C 47.4 °F /  8.6 °C 29.86in /  1011.1hPa WNW 2.7mph /  4.3km/h 12mph /  19.3km/h 48.8% 0.00in /  0mm 151 W/m2
14:34 67.5 °F /  19.7 °C 46.9 °F /  8.3 °C 29.86in /  1011.1hPa WNW 2.9mph /  4.7km/h 12mph /  19.3km/h 47.7% 0.00in /  0mm 151 W/m2
14:39 67.8 °F /  19.9 °C 47.1 °F /  8.4 °C 29.86in /  1011.1hPa NW 4.1mph /  6.6km/h 13mph /  20.9km/h 47.5% 0.00in /  0mm 69 W/m2
14:44 67.9 °F /  19.9 °C 46.5 °F /  8.1 °C 29.86in /  1011.1hPa WNW 4mph /  6.4km/h 13mph /  20.9km/h 46.1% 0.00in /  0mm 345 W/m2
14:49 68.1 °F /  20.1 °C 46.8 °F /  8.2 °C 29.86in /  1011.1hPa West 4mph /  6.4km/h 14mph /  22.5km/h 46.3% 0.00in /  0mm 151 W/m2
14:54 68.3 °F /  20.2 °C 47.6 °F /  8.7 °C 29.86in /  1011.1hPa WNW 2.6mph /  4.2km/h 14mph /  22.5km/h 47.5% 0.00in /  0mm 49 W/m2
14:59 68.4 °F /  20.2 °C 47.8 °F /  8.8 °C 29.85in /  1010.7hPa West 2.6mph /  4.2km/h 14mph /  22.5km/h 47.6% 0.00in /  0mm 67 W/m2
15:04 68.3 °F /  20.2 °C 47.8 °F /  8.8 °C 29.85in /  1010.7hPa WNW 2.7mph /  4.3km/h 14mph /  22.5km/h 47.9% 0.00in /  0mm 81 W/m2
15:07 68.2 °F /  20.1 °C 47.9 °F /  8.8 °C 29.85in /  1010.7hPa West 2.7mph /  4.3km/h 11mph /  17.7km/h 48.3% 0.00in /  0mm 81 W/m2
15:30 68.5 °F /  20.3 °C 48.6 °F /  9.2 °C 29.84in /  1010.4hPa WNW 2mph /  3.2km/h 11mph /  17.7km/h 49% 0.00in /  0mm 106 W/m2
16:04 68 °F /  20 °C 48.4 °F /  9.1 °C 29.84in /  1010.4hPa WNW 0.2mph /  0.3km/h 2mph /  3.2km/h 49.5% 0.00in /  0mm 56 W/m2
16:09 67.8 °F /  19.9 °C 48.1 °F /  8.9 °C 29.84in /  1010.4hPa WNW 2.6mph /  4.2km/h 11mph /  17.7km/h 49.3% 0.00in /  0mm 60 W/m2
16:14 67.7 °F /  19.8 °C 48.8 °F /  9.3 °C 29.84in /  1010.4hPa West 2.4mph /  3.9km/h 13mph /  20.9km/h 50.8% 0.00in /  0mm 58 W/m2
16:19 67.7 °F /  19.8 °C 48.5 °F /  9.2 °C 29.84in /  1010.4hPa WNW 2.2mph /  3.5km/h 13mph /  20.9km/h 50.2% 0.00in /  0mm 58 W/m2
16:24 67.7 °F /  19.8 °C 48.8 °F /  9.3 °C 29.83in /  1010hPa WNW 1.6mph /  2.6km/h 13mph /  20.9km/h 50.7% 0.00in /  0mm 69 W/m2
16:29 67.8 °F /  19.9 °C 49.7 °F /  9.8 °C 29.84in /  1010.4hPa WNW 0.2mph /  0.3km/h 13mph /  20.9km/h 52.3% 0.00in /  0mm 76 W/m2
16:34 67.9 °F /  19.9 °C 49.7 °F /  9.8 °C 29.83in /  1010hPa West 1.8mph /  2.9km/h 13mph /  20.9km/h 52.1% 0.00in /  0mm 81 W/m2
16:39 68 °F /  20 °C 49.1 °F /  9.5 °C 29.83in /  1010hPa WNW 1.7mph /  2.7km/h 7mph /  11.3km/h 50.8% 0.00in /  0mm 83 W/m2
16:44 68 °F /  20 °C 48.7 °F /  9.3 °C 29.83in /  1010hPa West 2.1mph /  3.4km/h 10mph /  16.1km/h 50.1% 0.00in /  0mm 84 W/m2
16:49 68 °F /  20 °C 49.3 °F /  9.6 °C 29.83in /  1010hPa WNW 2mph /  3.2km/h 12mph /  19.3km/h 51.2% 0.00in /  0mm 88 W/m2
16:54 68.1 °F /  20.1 °C 48.7 °F /  9.3 °C 29.83in /  1010hPa West 1.7mph /  2.7km/h 12mph /  19.3km/h 49.9% 0.00in /  0mm 90 W/m2
16:59 68 °F /  20 °C 48.4 °F /  9.1 °C 29.83in /  1010hPa WNW 2.5mph /  4km/h 12mph /  19.3km/h 49.3% 0.00in /  0mm 88 W/m2
17:04 68 °F /  20 °C 48.7 °F /  9.3 °C 29.83in /  1010hPa WNW 1mph /  1.6km/h 12mph /  19.3km/h 50.1% 0.00in /  0mm 83 W/m2
17:09 67.9 °F /  19.9 °C 48.9 °F /  9.4 °C 29.83in /  1010hPa West 1.6mph /  2.6km/h 8mph /  12.9km/h 50.5% 0.00in /  0mm 79 W/m2
17:14 67.9 °F /  19.9 °C 49 °F /  9.4 °C 29.83in /  1010hPa WSW 1.6mph /  2.6km/h 8mph /  12.9km/h 50.7% 0.00in /  0mm 79 W/m2
17:19 67.8 °F /  19.9 °C 48.7 °F /  9.3 °C 29.83in /  1010hPa West 1.3mph /  2.1km/h 8mph /  12.9km/h 50.3% 0.00in /  0mm 72 W/m2
17:24 67.6 °F /  19.8 °C 48.8 °F /  9.3 °C 29.83in /  1010hPa West 1.8mph /  2.9km/h 8mph /  12.9km/h 50.9% 0.00in /  0mm 63 W/m2
17:29 67.5 °F /  19.7 °C 48.2 °F /  9 °C 29.83in /  1010hPa West 1.2mph /  1.9km/h 8mph /  12.9km/h 50% 0.00in /  0mm 54 W/m2
17:34 67.3 °F /  19.6 °C 48.2 °F /  9 °C 29.83in /  1010hPa West 1mph /  1.6km/h 9mph /  14.5km/h 50.4% 0.00in /  0mm 49 W/m2
17:39 67.1 °F /  19.5 °C 48.2 °F /  9 °C 29.83in /  1010hPa WNW 0.7mph /  1.1km/h 9mph /  14.5km/h 50.7% 0.00in /  0mm 39 W/m2
17:44 66.8 °F /  19.3 °C 48.2 °F /  9 °C 29.83in /  1010hPa WNW 1.2mph /  1.9km/h 9mph /  14.5km/h 51.2% 0.00in /  0mm 35 W/m2
17:49 66.6 °F /  19.2 °C 48.1 °F /  8.9 °C 29.83in /  1010hPa West 3.1mph /  5km/h 13mph /  20.9km/h 51.3% 0.00in /  0mm 33 W/m2
17:54 66.4 °F /  19.1 °C 47.7 °F /  8.7 °C 29.83in /  1010hPa WNW 2.1mph /  3.4km/h 13mph /  20.9km/h 51% 0.00in /  0mm 33 W/m2
17:59 66.2 °F /  19 °C 48.2 °F /  9 °C 29.83in /  1010hPa WNW 1.2mph /  1.9km/h 13mph /  20.9km/h 52.3% 0.00in /  0mm 30 W/m2
18:04 65.9 °F /  18.8 °C 48.4 °F /  9.1 °C 29.83in /  1010hPa WNW 0.4mph /  0.6km/h 13mph /  20.9km/h 53.2% 0.00in /  0mm 26 W/m2
18:09 65.7 °F /  18.7 °C 48.6 °F /  9.2 °C 29.83in /  1010hPa WNW 0.1mph /  0.2km/h 2mph /  3.2km/h 53.8% 0.00in /  0mm 23 W/m2
18:14 65.5 °F /  18.6 °C 48.6 °F /  9.2 °C 29.83in /  1010hPa WNW 0.4mph /  0.6km/h 4mph /  6.4km/h 54.3% 0.00in /  0mm 18 W/m2
18:19 65.3 °F /  18.5 °C 48.3 °F /  9.1 °C 29.83in /  1010hPa WNW 0.2mph /  0.3km/h 4mph /  6.4km/h 54% 0.00in /  0mm 14 W/m2
18:24 65.2 °F /  18.4 °C 48.2 °F /  9 °C 29.83in /  1010hPa WNW 0.1mph /  0.2km/h 4mph /  6.4km/h 54.2% 0.00in /  0mm 12 W/m2
18:29 65 °F /  18.3 °C 48.5 °F /  9.2 °C 29.83in /  1010hPa WNW 0.1mph /  0.2km/h 4mph /  6.4km/h 55.2% 0.00in /  0mm 11 W/m2
18:34 64.8 °F /  18.2 °C 48.5 °F /  9.2 °C 29.83in /  1010hPa WNW 0.1mph /  0.2km/h 4mph /  6.4km/h 55.5% 0.00in /  0mm 7 W/m2
18:39 64.5 °F /  18.1 °C 48.5 °F /  9.2 °C 29.83in /  1010hPa Calm   1mph /  1.6km/h 56% 0.00in /  0mm 5 W/m2
18:44 64.3 °F /  17.9 °C 48.5 °F /  9.2 °C 29.83in /  1010hPa Calm   1mph /  1.6km/h 56.4% 0.00in /  0mm 0 W/m2
18:49 64.1 °F /  17.8 °C 49 °F /  9.4 °C 29.83in /  1010hPa Calm   1mph /  1.6km/h 58% 0.00in /  0mm 0 W/m2
18:54 63.8 °F /  17.7 °C 48.6 °F /  9.2 °C 29.83in /  1010hPa Calm   1mph /  1.6km/h 57.7% 0.00in /  0mm 0 W/m2
18:59 63.6 °F /  17.6 °C 48.3 °F /  9.1 °C 29.83in /  1010hPa Calm   1mph /  1.6km/h 57.5% 0.00in /  0mm 0 W/m2
19:04 63.3 °F /  17.4 °C 48.4 °F /  9.1 °C 29.83in /  1010hPa Calm   1mph /  1.6km/h 58.3% 0.00in /  0mm 0 W/m2
19:09 63 °F /  17.2 °C 48.6 °F /  9.2 °C 29.83in /  1010hPa Calm     59.2% 0.00in /  0mm 0 W/m2
19:14 62.7 °F /  17.1 °C 48.6 °F /  9.2 °C 29.83in /  1010hPa Calm     60.1% 0.00in /  0mm 0 W/m2
19:19 62.3 °F /  16.8 °C 48.8 °F /  9.3 °C 29.83in /  1010hPa Calm     61.2% 0.00in /  0mm 0 W/m2
19:24 61.9 °F /  16.6 °C 48.9 °F /  9.4 °C 29.84in /  1010.4hPa Calm     62.2% 0.00in /  0mm 0 W/m2
19:29 61.5 °F /  16.4 °C 48.7 °F /  9.3 °C 29.84in /  1010.4hPa Calm     62.9% 0.00in /  0mm 0 W/m2
19:34 61.1 °F /  16.2 °C 48.7 °F /  9.3 °C 29.83in /  1010hPa Calm     63.6% 0.00in /  0mm 0 W/m2
19:39 60.8 °F /  16 °C 48.9 °F /  9.4 °C 29.83in /  1010hPa Calm     64.8% 0.00in /  0mm 0 W/m2
19:44 60.5 °F /  15.8 °C 48.9 °F /  9.4 °C 29.84in /  1010.4hPa Calm     65.7% 0.00in /  0mm 0 W/m2
19:49 60.1 °F /  15.6 °C 49.2 °F /  9.6 °C 29.84in /  1010.4hPa Calm     67.2% 0.00in /  0mm 0 W/m2
19:54 59.7 °F /  15.4 °C 49.2 °F /  9.6 °C 29.84in /  1010.4hPa Calm     68.1% 0.00in /  0mm 0 W/m2
19:59 59.4 °F /  15.2 °C 49.3 °F /  9.6 °C 29.84in /  1010.4hPa Calm     69% 0.00in /  0mm 0 W/m2
20:04 58.9 °F /  14.9 °C 49.5 °F /  9.7 °C 29.84in /  1010.4hPa Calm     71% 0.00in /  0mm 0 W/m2
20:09 58.6 °F /  14.8 °C 49.5 °F /  9.7 °C 29.84in /  1010.4hPa Calm     71.5% 0.00in /  0mm 0 W/m2
20:14 58.2 °F /  14.6 °C 49.3 °F /  9.6 °C 29.84in /  1010.4hPa Calm     72.2% 0.00in /  0mm 0 W/m2
20:19 57.8 °F /  14.3 °C 49.3 °F /  9.6 °C 29.84in /  1010.4hPa Calm     73.1% 0.00in /  0mm 0 W/m2
20:24 57.5 °F /  14.2 °C 49.3 °F /  9.6 °C 29.84in /  1010.4hPa Calm     74% 0.00in /  0mm 0 W/m2
20:29 57.2 °F /  14 °C 49.1 °F /  9.5 °C 29.84in /  1010.4hPa Calm     74.3% 0.00in /  0mm 0 W/m2
20:34 57 °F /  13.9 °C 49.1 °F /  9.5 °C 29.84in /  1010.4hPa Calm     75% 0.00in /  0mm 0 W/m2
20:39 56.7 °F /  13.7 °C 49.3 °F /  9.6 °C 29.84in /  1010.4hPa Calm     76% 0.00in /  0mm 0 W/m2
20:44 56.5 °F /  13.6 °C 49.4 °F /  9.7 °C 29.85in /  1010.7hPa Calm     77% 0.00in /  0mm 0 W/m2
20:49 56.2 °F /  13.4 °C 49.4 °F /  9.7 °C 29.85in /  1010.7hPa Calm     77.7% 0.00in /  0mm 0 W/m2
20:54 56 °F /  13.3 °C 49.4 °F /  9.7 °C 29.84in /  1010.4hPa Calm     78.3% 0.00in /  0mm 0 W/m2
20:59 55.8 °F /  13.2 °C 49.4 °F /  9.7 °C 29.84in /  1010.4hPa Calm     79% 0.00in /  0mm 0 W/m2
21:04 55.6 °F /  13.1 °C 49.4 °F /  9.7 °C 29.84in /  1010.4hPa Calm     79.6% 0.00in /  0mm 0 W/m2
21:09 55.4 °F /  13 °C 49.1 °F /  9.5 °C 29.84in /  1010.4hPa Calm     79.3% 0.00in /  0mm 0 W/m2
21:14 55.4 °F /  13 °C 49.3 °F /  9.6 °C 29.84in /  1010.4hPa Calm     80.1% 0.00in /  0mm 0 W/m2
21:19 55.3 °F /  12.9 °C 49.6 °F /  9.8 °C 29.84in /  1010.4hPa Calm     81% 0.00in /  0mm 0 W/m2
21:24 55.2 °F /  12.9 °C 49.5 °F /  9.7 °C 29.84in /  1010.4hPa Calm     81% 0.00in /  0mm 0 W/m2
21:29 55.1 °F /  12.8 °C 49.4 °F /  9.7 °C 29.84in /  1010.4hPa Calm     81.1% 0.00in /  0mm 0 W/m2
21:34 55 °F /  12.8 °C 49.6 °F /  9.8 °C 29.84in /  1010.4hPa Calm     82% 0.00in /  0mm 0 W/m2
21:39 54.8 °F /  12.7 °C 49.5 °F /  9.7 °C 29.84in /  1010.4hPa Calm     82% 0.00in /  0mm 0 W/m2
21:44 54.7 °F /  12.6 °C 49.3 °F /  9.6 °C 29.84in /  1010.4hPa Calm     82% 0.00in /  0mm 0 W/m2
21:49 54.6 °F /  12.6 °C 49.2 °F /  9.6 °C 29.83in /  1010hPa Calm     82% 0.00in /  0mm 0 W/m2
21:54 54.4 °F /  12.4 °C 49.3 °F /  9.6 °C 29.83in /  1010hPa Calm     82.8% 0.00in /  0mm 0 W/m2
21:59 54.3 °F /  12.4 °C 49.3 °F /  9.6 °C 29.83in /  1010hPa Calm     83% 0.00in /  0mm 0 W/m2
22:01 54.2 °F /  12.3 °C 49.2 °F /  9.6 °C 29.83in /  1010hPa Calm     83% 0.00in /  0mm 0 W/m2
22:30 53.1 °F /  11.7 °C 49 °F /  9.4 °C 29.85in /  1010.7hPa Calm     86% 0.00in /  0mm 0 W/m2
23:00 52.5 °F /  11.4 °C 48.8 °F /  9.3 °C 29.85in /  1010.7hPa Calm     87% 0.00in /  0mm 0 W/m2
23:30 53.2 °F /  11.8 °C 48.8 °F /  9.3 °C 29.85in /  1010.7hPa Calm     85% 0.00in /  0mm 0 W/m2
Hartford County Weather
Compliments of Weather Underground - 4 mb